Time;durP1;ratioP1;P1;durP2;ratioP2;P2;SDS_P1;SDS_P2;PMS_P1;PMS_P2;Temp;Humidity;BMP_temperature;BMP_pressure;BME280_temperature;BME280_humidity;BME280_pressure;Samples;Min_cycle;Max_cycle;Signal;HPM_P1;HPM_P2
2021/03/31 00:02:08;;;;;;;10.30;2.85;;;7.40;99.90;;;;;;5040599;28;20746;-74
2021/03/31 00:04:34;;;;;;;11.68;2.60;;;7.40;99.90;;;;;;5033391;28;20595;-74
2021/03/31 00:07:00;;;;;;;11.55;2.72;;;7.40;99.90;;;;;;5039387;28;20276;-74
2021/03/31 00:09:26;;;;;;;15.80;3.38;;;7.20;99.90;;;;;;5039255;28;20290;-75
2021/03/31 00:11:52;;;;;;;7.78;2.88;;;7.20;99.90;;;;;;5034127;28;20194;-75
2021/03/31 00:14:18;;;;;;;11.65;2.88;;;7.20;99.90;;;;;;5039453;28;20624;-76
2021/03/31 00:16:44;;;;;;;11.77;3.28;;;7.20;99.90;;;;;;5035947;28;20284;-74
2021/03/31 00:19:11;;;;;;;10.88;3.67;;;7.10;99.90;;;;;;5035895;28;20204;-75
2021/03/31 00:21:36;;;;;;;14.80;3.55;;;7.10;99.90;;;;;;5034263;28;20236;-75
2021/03/31 00:24:02;;;;;;;18.10;2.92;;;7.00;99.90;;;;;;5037280;28;20190;-75
2021/03/31 00:26:28;;;;;;;15.25;3.40;;;7.00;99.90;;;;;;5023772;28;20197;-75
2021/03/31 00:28:54;;;;;;;9.57;2.97;;;7.00;99.90;;;;;;5024413;28;20221;-75
2021/03/31 00:31:19;;;;;;;13.18;3.05;;;7.00;99.90;;;;;;5033647;28;20201;-75
2021/03/31 00:33:45;;;;;;;12.30;3.30;;;7.00;99.90;;;;;;5021397;28;20758;-75
2021/03/31 00:36:11;;;;;;;12.13;2.95;;;7.00;99.90;;;;;;5023794;28;20201;-75
2021/03/31 00:38:37;;;;;;;10.55;2.70;;;6.90;99.90;;;;;;5036914;28;20743;-75
2021/03/31 00:41:04;;;;;;;13.70;3.38;;;6.70;99.90;;;;;;5016933;28;20344;-75
2021/03/31 00:43:30;;;;;;;10.82;2.53;;;6.70;99.90;;;;;;5035596;28;20198;-76
2021/03/31 00:45:56;;;;;;;9.55;3.13;;;6.60;99.90;;;;;;5033254;28;20197;-75
2021/03/31 00:48:22;;;;;;;12.65;3.25;;;6.60;99.90;;;;;;5016023;28;20573;-75
2021/03/31 00:50:50;;;;;;;13.57;3.22;;;6.60;99.90;;;;;;5033798;28;20214;-75
2021/03/31 00:53:18;;;;;;;14.13;3.33;;;6.60;99.90;;;;;;5035972;28;20556;-75
2021/03/31 00:55:45;;;;;;;13.68;3.50;;;6.80;99.90;;;;;;5017513;28;20220;-75
2021/03/31 00:58:11;;;;;;;9.80;2.65;;;6.80;99.90;;;;;;5037854;28;20205;-75
2021/03/31 01:00:37;;;;;;;13.55;3.08;;;6.70;99.90;;;;;;5032439;28;20542;-75
2021/03/31 01:03:02;;;;;;;14.40;2.90;;;6.60;99.90;;;;;;5036542;28;20443;-75
2021/03/31 01:05:29;;;;;;;13.13;2.50;;;6.40;99.90;;;;;;5033445;28;20348;-75
2021/03/31 01:07:56;;;;;;;8.68;2.72;;;6.20;99.90;;;;;;5021597;28;20251;-75
2021/03/31 01:10:26;;;;;;;7.60;2.50;;;6.10;99.90;;;;;;5019969;28;21040;-75
2021/03/31 01:13:11;;;;;;;10.30;3.00;;;6.00;99.90;;;;;;5018148;28;20197;-75
2021/03/31 01:16:15;;;;;;;11.95;2.90;;;5.90;99.90;;;;;;5036193;28;20243;-75
2021/03/31 01:19:01;;;;;;;9.63;3.03;;;5.80;99.90;;;;;;5037453;28;20229;-75
2021/03/31 01:22:05;;;;;;;10.77;3.20;;;5.70;99.90;;;;;;5035745;28;20198;-75
2021/03/31 01:24:53;;;;;;;7.85;2.67;;;5.60;99.90;;;;;;5010019;28;20233;-75
2021/03/31 01:27:26;;;;;;;14.82;3.20;;;5.60;99.90;;;;;;5036545;28;20201;-75
2021/03/31 01:30:06;;;;;;;12.48;3.40;;;5.60;99.90;;;;;;5036120;28;20193;-75
2021/03/31 01:33:10;;;;;;;11.82;2.78;;;5.50;99.90;;;;;;5037618;28;20899;-75
2021/03/31 01:35:36;;;;;;;11.27;2.90;;;5.30;99.90;;;;;;5037032;28;20208;-75
2021/03/31 01:38:14;;;;;;;10.80;3.15;;;5.30;99.90;;;;;;5033799;28;20568;-76
2021/03/31 01:40:48;;;;;;;9.88;3.00;;;5.20;99.90;;;;;;5034591;28;20189;-76
2021/03/31 01:43:17;;;;;;;13.90;3.03;;;5.20;99.90;;;;;;5033594;28;20193;-75
2021/03/31 01:45:48;;;;;;;9.30;2.70;;;5.20;99.90;;;;;;5034993;28;20193;-75
2021/03/31 01:48:17;;;;;;;8.93;2.78;;;5.20;99.90;;;;;;5036634;28;20205;-75
2021/03/31 01:50:48;;;;;;;10.05;3.00;;;5.10;99.90;;;;;;5036268;28;20685;-75
2021/03/31 01:53:14;;;;;;;11.25;3.00;;;5.00;99.90;;;;;;5040906;28;20985;-75
2021/03/31 01:55:41;;;;;;;17.17;3.05;;;5.00;99.90;;;;;;5035712;28;20193;-75
2021/03/31 01:58:08;;;;;;;7.00;2.90;;;5.00;99.90;;;;;;5034399;28;20205;-75
2021/03/31 02:00:34;;;;;;;12.57;2.92;;;5.00;99.90;;;;;;5032246;28;20201;-76
2021/03/31 02:03:01;;;;;;;17.90;3.33;;;4.90;99.90;;;;;;5036859;28;20221;-75
2021/03/31 02:05:29;;;;;;;12.82;3.38;;;4.90;99.90;;;;;;5032397;28;20643;-74
2021/03/31 02:07:54;;;;;;;16.50;3.40;;;4.80;99.90;;;;;;5038250;28;20220;-75
2021/03/31 02:10:26;;;;;;;10.95;3.25;;;4.80;99.90;;;;;;5035600;28;20210;-75
2021/03/31 02:12:53;;;;;;;19.73;3.20;;;4.70;99.90;;;;;;5020239;28;20291;-75
2021/03/31 02:15:24;;;;;;;6.35;2.80;;;4.70;99.90;;;;;;5036374;28;20212;-76
2021/03/31 02:17:51;;;;;;;18.02;3.55;;;4.70;99.90;;;;;;5036571;28;20205;-74
2021/03/31 02:20:19;;;;;;;14.18;4.05;;;4.70;99.90;;;;;;5024491;28;20197;-74
2021/03/31 02:22:47;;;;;;;15.80;3.38;;;4.70;99.90;;;;;;5042805;28;20189;-75
2021/03/31 02:25:13;;;;;;;15.02;3.60;;;4.80;99.90;;;;;;5041047;28;20205;-75
2021/03/31 02:27:40;;;;;;;22.30;4.03;;;4.80;99.90;;;;;;5027878;28;20216;-75
2021/03/31 02:30:10;;;;;;;18.13;3.30;;;4.70;99.90;;;;;;5042367;28;20692;-75
2021/03/31 02:32:36;;;;;;;16.10;3.92;;;4.70;99.90;;;;;;5018196;28;20287;-75
2021/03/31 02:35:03;;;;;;;15.43;3.60;;;4.70;99.90;;;;;;5021959;28;20230;-74
2021/03/31 02:37:29;;;;;;;24.15;3.55;;;4.70;99.90;;;;;;5040789;28;20216;-75
2021/03/31 02:39:56;;;;;;;8.60;3.33;;;4.70;99.90;;;;;;5040511;28;20193;-75
2021/03/31 02:42:24;;;;;;;16.80;3.53;;;4.70;99.90;;;;;;5025628;28;20301;-74
2021/03/31 02:44:56;;;;;;;13.50;3.78;;;4.70;99.90;;;;;;5036753;28;20193;-75
2021/03/31 02:47:25;;;;;;;16.13;3.55;;;4.70;99.90;;;;;;5022846;28;20256;-74
2021/03/31 02:49:54;;;;;;;18.52;4.35;;;4.70;99.90;;;;;;5036121;28;20200;-74
2021/03/31 02:52:23;;;;;;;23.08;3.47;;;4.70;99.90;;;;;;5040581;28;20693;-75
2021/03/31 02:54:50;;;;;;;14.55;4.55;;;4.70;99.90;;;;;;5042025;28;20190;-75
2021/03/31 02:57:18;;;;;;;13.93;3.35;;;4.70;99.90;;;;;;5040891;28;20214;-76
2021/03/31 02:59:45;;;;;;;13.82;3.25;;;4.70;99.90;;;;;;5020564;28;20204;-75
2021/03/31 03:02:11;;;;;;;9.73;3.10;;;4.70;99.90;;;;;;5041878;28;20185;-75
2021/03/31 03:04:38;;;;;;;14.43;3.55;;;4.70;99.90;;;;;;5037342;28;20300;-75
2021/03/31 03:07:06;;;;;;;15.05;3.35;;;4.70;99.90;;;;;;5038575;28;20210;-75
2021/03/31 03:09:33;;;;;;;19.25;4.13;;;4.70;99.90;;;;;;5039317;28;20271;-74
2021/03/31 03:11:59;;;;;;;21.50;3.83;;;4.70;99.90;;;;;;5021733;28;20205;-75
2021/03/31 03:14:26;;;;;;;25.40;4.50;;;4.70;99.90;;;;;;5038323;28;20722;-75
2021/03/31 03:16:52;;;;;;;13.18;4.05;;;4.80;99.90;;;;;;5038372;28;20209;-75
2021/03/31 03:19:18;;;;;;;17.55;3.47;;;4.80;99.90;;;;;;5037296;28;20194;-73
2021/03/31 03:21:44;;;;;;;19.20;3.80;;;4.80;99.90;;;;;;5039058;28;20197;-74
2021/03/31 03:24:15;;;;;;;7.78;3.10;;;4.80;99.90;;;;;;5023606;28;20216;-74
2021/03/31 03:26:41;;;;;;;14.00;3.65;;;4.80;99.90;;;;;;5038761;28;20201;-74
2021/03/31 03:29:09;;;;;;;10.70;3.38;;;4.80;99.90;;;;;;5038640;28;20200;-74
2021/03/31 03:31:36;;;;;;;14.60;3.00;;;4.70;99.90;;;;;;5041077;28;20198;-74
2021/03/31 03:34:06;;;;;;;14.20;3.38;;;4.70;99.90;;;;;;5036646;28;20328;-74
2021/03/31 03:36:32;;;;;;;12.80;3.40;;;4.70;99.90;;;;;;5022137;28;20321;-74
2021/03/31 03:38:58;;;;;;;18.98;3.30;;;4.70;99.90;;;;;;5034483;28;20245;-73
2021/03/31 03:41:24;;;;;;;18.73;3.72;;;4.70;99.90;;;;;;5038797;28;20313;-75
2021/03/31 03:43:54;;;;;;;16.85;3.33;;;4.70;99.90;;;;;;5019502;28;20205;-75
2021/03/31 03:46:21;;;;;;;36.28;4.10;;;4.70;99.90;;;;;;5024771;28;20243;-74
2021/03/31 03:48:47;;;;;;;16.15;3.60;;;4.60;99.90;;;;;;5040946;28;20203;-74
2021/03/31 03:51:13;;;;;;;18.65;3.90;;;4.60;99.90;;;;;;5038229;28;20201;-74
2021/03/31 03:53:39;;;;;;;18.52;4.15;;;4.60;99.90;;;;;;5037986;28;20565;-77
2021/03/31 03:56:12;;;;;;;37.38;4.45;;;4.70;99.90;;;;;;5035132;28;20202;-77
2021/03/31 03:58:39;;;;;;;21.65;3.90;;;4.70;99.90;;;;;;5021817;28;20213;-75
2021/03/31 04:01:05;;;;;;;25.63;3.83;;;4.70;99.90;;;;;;5037453;28;20305;-77
2021/03/31 04:03:31;;;;;;;15.20;3.58;;;4.80;99.90;;;;;;5038456;28;20275;-76
2021/03/31 04:05:57;;;;;;;9.77;3.20;;;4.80;99.90;;;;;;5043926;28;20193;-77
2021/03/31 04:08:23;;;;;;;9.85;3.13;;;4.70;99.90;;;;;;5046699;28;20220;-73
2021/03/31 04:10:52;;;;;;;17.63;3.20;;;4.80;99.90;;;;;;5037768;28;20236;-73
2021/03/31 04:13:19;;;;;;;32.83;3.85;;;4.80;99.90;;;;;;5029366;28;20189;-73
2021/03/31 04:15:49;;;;;;;18.52;3.22;;;4.80;99.90;;;;;;5041307;28;20207;-73
2021/03/31 04:18:16;;;;;;;37.15;3.83;;;4.80;99.90;;;;;;5040710;28;20730;-73
2021/03/31 04:20:44;;;;;;;16.55;3.42;;;4.80;99.90;;;;;;5026866;28;20197;-74
2021/03/31 04:23:11;;;;;;;16.67;3.58;;;4.80;99.90;;;;;;5041784;28;20259;-73
2021/03/31 04:25:37;;;;;;;20.83;3.88;;;4.80;99.90;;;;;;5031202;28;20201;-72
2021/03/31 04:28:07;;;;;;;14.70;3.13;;;4.80;99.90;;;;;;5041762;28;20265;-73
2021/03/31 04:30:34;;;;;;;15.85;3.10;;;4.80;99.90;;;;;;5039638;28;20194;-74
2021/03/31 04:33:00;;;;;;;11.48;3.30;;;4.80;99.90;;;;;;5024616;28;20643;-75
2021/03/31 04:35:26;;;;;;;11.55;3.10;;;4.80;99.90;;;;;;5037946;28;20218;-74
2021/03/31 04:37:52;;;;;;;22.83;3.20;;;4.80;99.90;;;;;;5042511;28;20677;-74
2021/03/31 04:40:20;;;;;;;34.80;3.83;;;4.80;99.90;;;;;;5040426;28;20205;-74
2021/03/31 04:42:46;;;;;;;18.23;3.63;;;4.80;99.90;;;;;;5038182;28;20285;-74
2021/03/31 04:45:13;;;;;;;15.80;3.45;;;4.80;99.90;;;;;;5023580;28;20204;-74
2021/03/31 04:47:40;;;;;;;7.50;2.90;;;4.80;99.90;;;;;;5037625;28;20202;-74
2021/03/31 04:50:08;;;;;;;21.40;3.50;;;4.80;99.90;;;;;;5043433;28;20202;-73
2021/03/31 04:52:34;;;;;;;11.93;3.20;;;4.90;99.90;;;;;;5036907;28;20189;-74
2021/03/31 04:55:00;;;;;;;12.30;2.95;;;4.90;99.90;;;;;;5034719;28;20255;-74
2021/03/31 04:57:25;;;;;;;11.25;2.83;;;5.00;99.90;;;;;;5024871;28;20212;-74
2021/03/31 04:59:51;;;;;;;16.25;3.42;;;5.00;99.90;;;;;;5036614;28;20213;-74
2021/03/31 05:02:17;;;;;;;11.57;3.22;;;5.00;99.90;;;;;;5039412;28;20202;-74
2021/03/31 05:04:42;;;;;;;16.38;3.00;;;5.10;99.90;;;;;;5035656;28;20233;-74
2021/03/31 05:07:08;;;;;;;8.02;2.55;;;5.10;99.90;;;;;;5037699;28;20231;-74
2021/03/31 05:09:34;;;;;;;10.20;2.80;;;5.10;99.90;;;;;;5024074;28;20200;-74
2021/03/31 05:12:49;;;;;;;9.02;2.88;;;5.10;99.90;;;;;;5043051;28;20193;-79
2021/03/31 05:15:15;;;;;;;9.10;2.90;;;5.20;99.90;;;;;;5034180;28;20663;-75
2021/03/31 05:17:41;;;;;;;7.80;2.75;;;5.20;99.90;;;;;;5039160;28;20289;-74
2021/03/31 05:20:07;;;;;;;6.72;2.60;;;5.30;99.90;;;;;;5019247;28;20189;-76
2021/03/31 05:22:33;;;;;;;11.98;3.00;;;5.30;99.90;;;;;;5021889;28;20729;-74
2021/03/31 05:24:59;;;;;;;10.80;3.08;;;5.30;99.90;;;;;;5024644;28;20197;-74
2021/03/31 05:27:25;;;;;;;13.68;3.30;;;5.30;99.90;;;;;;5018759;28;20276;-74
2021/03/31 05:29:50;;;;;;;12.52;3.53;;;5.30;99.90;;;;;;5041755;28;20197;-74
2021/03/31 05:32:16;;;;;;;10.20;2.83;;;5.40;99.90;;;;;;5025955;28;20205;-74
2021/03/31 05:34:42;;;;;;;11.93;2.80;;;5.50;99.90;;;;;;5024530;28;20197;-74
2021/03/31 05:37:08;;;;;;;7.60;3.03;;;5.50;99.90;;;;;;5040871;28;20212;-74
2021/03/31 05:39:34;;;;;;;12.93;3.90;;;5.50;99.90;;;;;;5043481;28;20690;-76
2021/03/31 05:42:00;;;;;;;15.68;4.00;;;5.60;99.90;;;;;;5037193;28;20591;-74
2021/03/31 05:44:28;;;;;;;20.05;3.78;;;5.60;99.90;;;;;;5041290;28;20252;-74
2021/03/31 05:46:55;;;;;;;9.82;3.47;;;5.70;99.90;;;;;;5019520;28;20680;-73
2021/03/31 05:49:20;;;;;;;9.77;3.65;;;5.80;99.90;;;;;;5033450;28;21015;-76
2021/03/31 05:51:46;;;;;;;17.73;3.72;;;5.90;99.90;;;;;;5017745;28;20240;-73
2021/03/31 05:54:12;;;;;;;13.82;3.63;;;6.00;99.90;;;;;;5042354;28;20204;-73
2021/03/31 05:56:40;;;;;;;11.45;4.18;;;6.10;99.90;;;;;;5037774;28;20723;-76
2021/03/31 05:59:07;;;;;;;14.63;4.82;;;6.20;99.90;;;;;;5010834;28;20297;-75
2021/03/31 06:01:33;;;;;;;21.88;4.90;;;6.30;99.90;;;;;;5025619;28;20209;-76
2021/03/31 06:04:00;;;;;;;26.27;7.47;;;6.40;99.90;;;;;;5037908;28;20542;-76
2021/03/31 06:06:26;;;;;;;20.42;5.07;;;6.50;99.90;;;;;;5032700;28;20196;-76
2021/03/31 06:08:52;;;;;;;20.52;5.05;;;6.50;99.90;;;;;;5041033;28;20202;-77
2021/03/31 06:11:20;;;;;;;17.50;4.15;;;6.60;99.90;;;;;;5034217;28;20201;-77
2021/03/31 06:13:59;;;;;;;19.35;4.95;;;6.60;99.90;;;;;;5038565;28;20194;-77
2021/03/31 06:16:31;;;;;;;18.88;4.38;;;6.70;99.90;;;;;;5033169;28;20249;-77
2021/03/31 06:19:14;;;;;;;18.05;4.10;;;6.80;99.90;;;;;;5039905;28;21492;-76
2021/03/31 06:21:41;;;;;;;16.50;4.38;;;6.90;99.90;;;;;;5019239;28;20197;-76
2021/03/31 06:24:25;;;;;;;16.23;4.70;;;7.00;99.90;;;;;;5036329;28;20548;-76
2021/03/31 06:26:51;;;;;;;14.52;4.45;;;7.10;99.90;;;;;;5038793;28;20224;-77
2021/03/31 06:29:17;;;;;;;12.43;4.13;;;7.20;99.90;;;;;;5001944;28;20228;-77
2021/03/31 06:31:45;;;;;;;18.67;4.55;;;7.20;99.90;;;;;;5029752;28;20912;-77
2021/03/31 06:34:19;;;;;;;13.25;4.22;;;7.30;99.90;;;;;;5033110;28;20202;-77
2021/03/31 06:36:49;;;;;;;10.85;3.70;;;7.40;99.90;;;;;;5030136;28;20219;-77
2021/03/31 06:39:36;;;;;;;17.10;5.18;;;7.40;99.90;;;;;;5021923;28;20512;-76
2021/03/31 06:42:11;;;;;;;12.98;3.78;;;7.50;99.90;;;;;;5034843;28;20202;-77
2021/03/31 06:49:49;;;;;;;15.50;3.85;;;7.70;99.90;;;;;;5037651;28;20232;-76
2021/03/31 06:52:16;;;;;;;14.55;3.65;;;7.80;99.90;;;;;;5036097;28;20201;-77
2021/03/31 06:54:53;;;;;;;11.68;3.65;;;7.90;99.90;;;;;;5021244;28;20207;-76
2021/03/31 06:57:32;;;;;;;14.02;3.70;;;8.10;99.90;;;;;;5031210;28;20204;-76
2021/03/31 07:00:04;;;;;;;17.50;3.90;;;8.20;99.90;;;;;;5035616;28;20192;-76
2021/03/31 07:02:32;;;;;;;11.73;3.22;;;8.40;99.90;;;;;;5044265;28;20221;-76
2021/03/31 07:04:58;;;;;;;16.05;3.75;;;8.50;99.90;;;;;;5039935;28;20259;-77
2021/03/31 07:07:44;;;;;;;12.10;4.00;;;8.60;99.90;;;;;;5045505;28;20204;-75
2021/03/31 07:10:17;;;;;;;20.00;3.00;;;8.60;99.90;;;;;;5038838;28;20210;-75
2021/03/31 07:12:52;;;;;;;9.23;2.80;;;8.70;99.90;;;;;;5022724;28;20206;-74
2021/03/31 07:15:22;;;;;;;11.07;2.92;;;8.70;99.90;;;;;;5039265;28;20215;-75
2021/03/31 07:17:53;;;;;;;16.05;3.28;;;8.80;99.90;;;;;;5040261;28;20563;-75
2021/03/31 07:20:20;;;;;;;19.10;3.80;;;8.80;99.90;;;;;;5040356;28;20276;-75
2021/03/31 07:22:46;;;;;;;14.82;3.35;;;8.90;99.90;;;;;;5017662;28;20236;-75
2021/03/31 07:25:13;;;;;;;10.73;3.22;;;8.90;99.90;;;;;;5035540;28;20668;-75
2021/03/31 07:27:42;;;;;;;9.73;2.97;;;8.80;99.90;;;;;;5036144;28;20271;-75
2021/03/31 07:30:11;;;;;;;11.27;3.55;;;8.90;99.90;;;;;;5031436;28;20198;-74
2021/03/31 07:32:51;;;;;;;12.43;3.35;;;9.00;99.90;;;;;;5018747;28;20260;-75
2021/03/31 07:35:19;;;;;;;13.75;3.17;;;9.00;99.90;;;;;;5034263;28;20328;-76
2021/03/31 07:37:46;;;;;;;14.75;3.72;;;9.10;99.90;;;;;;5039575;28;20295;-75
2021/03/31 07:40:14;;;;;;;11.45;2.90;;;9.20;99.90;;;;;;5039268;28;20228;-76
2021/03/31 07:42:47;;;;;;;11.00;3.22;;;9.20;99.90;;;;;;5040855;28;20205;-76
2021/03/31 07:45:16;;;;;;;12.68;2.95;;;9.20;99.90;;;;;;5037152;28;20312;-75
2021/03/31 07:47:44;;;;;;;14.05;4.82;;;9.20;99.90;;;;;;5022660;28;20216;-75
2021/03/31 07:50:12;;;;;;;12.15;3.92;;;9.10;99.90;;;;;;5020233;28;20626;-75
2021/03/31 07:52:55;;;;;;;7.28;2.30;;;9.10;99.90;;;;;;5042631;28;20205;-76
2021/03/31 07:55:44;;;;;;;12.40;3.35;;;8.80;99.90;;;;;;5037595;28;20292;-75
2021/03/31 07:58:16;;;;;;;7.28;3.17;;;8.50;99.90;;;;;;5032654;28;20671;-75
2021/03/31 08:00:44;;;;;;;10.60;4.63;;;8.20;99.90;;;;;;5033835;28;20198;-75
2021/03/31 08:03:14;;;;;;;6.30;2.95;;;7.90;99.90;;;;;;5040081;28;20228;-78
2021/03/31 08:06:08;;;;;;;10.10;2.70;;;7.70;99.90;;;;;;5038840;28;20204;-78
2021/03/31 08:08:56;;;;;;;4.63;2.22;;;7.40;99.90;;;;;;5037190;28;20594;-78
2021/03/31 08:11:40;;;;;;;9.23;2.95;;;7.20;99.90;;;;;;5018527;28;20198;-78
2021/03/31 08:14:06;;;;;;;4.72;2.40;;;7.00;99.90;;;;;;5035187;28;20202;-78
2021/03/31 08:16:37;;;;;;;5.28;2.70;;;6.80;99.90;;;;;;5040323;28;20691;-78
2021/03/31 08:19:16;;;;;;;4.47;2.30;;;6.70;99.90;;;;;;5035310;28;20200;-77
2021/03/31 08:21:44;;;;;;;5.85;1.83;;;6.60;99.90;;;;;;5039221;28;20197;-74
2021/03/31 08:24:11;;;;;;;4.80;2.30;;;6.60;99.90;;;;;;5019376;28;20282;-77
2021/03/31 08:26:44;;;;;;;3.85;1.90;;;6.60;99.90;;;;;;5034036;28;20236;-76
2021/03/31 08:29:19;;;;;;;3.20;1.67;;;6.40;99.90;;;;;;5035484;28;20206;-77
2021/03/31 08:31:56;;;;;;;2.42;1.48;;;6.30;99.90;;;;;;5029139;28;20744;-77
2021/03/31 08:34:29;;;;;;;3.58;1.98;;;6.20;99.90;;;;;;5033372;28;20201;-77
2021/03/31 08:36:56;;;;;;;2.88;2.00;;;6.10;99.90;;;;;;5034753;28;20209;-78
2021/03/31 08:39:22;;;;;;;20.00;14.93;;;6.10;99.90;;;;;;5030362;28;20205;-77
2021/03/31 08:41:52;;;;;;;3.53;2.15;;;6.10;99.90;;;;;;5025074;28;20588;-77
2021/03/31 08:44:24;;;;;;;3.97;2.50;;;6.10;99.90;;;;;;5020329;28;20196;-77
2021/03/31 08:46:53;;;;;;;4.95;3.33;;;6.10;99.90;;;;;;5015494;28;20218;-77
2021/03/31 08:49:25;;;;;;;6.03;3.65;;;6.10;99.90;;;;;;5038053;28;20190;-77
2021/03/31 08:51:55;;;;;;;11.80;8.10;;;6.20;99.90;;;;;;5024423;28;20205;-76
2021/03/31 08:54:44;;;;;;;12.55;4.97;;;6.20;99.90;;;;;;5036988;28;20646;-77
2021/03/31 08:57:12;;;;;;;5.47;2.38;;;6.20;99.90;;;;;;5034953;28;20210;-76
2021/03/31 08:59:41;;;;;;;7.40;3.15;;;6.20;99.90;;;;;;5034499;28;20201;-77
2021/03/31 09:02:07;;;;;;;2.25;1.40;;;6.20;99.90;;;;;;5020078;28;20217;-77
2021/03/31 09:04:34;;;;;;;3.88;1.45;;;6.20;99.90;;;;;;5013604;28;20505;-78
2021/03/31 09:07:02;;;;;;;4.75;2.00;;;6.10;99.90;;;;;;5039247;28;20201;-77
2021/03/31 09:09:33;;;;;;;6.38;1.50;;;6.10;99.90;;;;;;5035456;28;20190;-76
2021/03/31 09:12:05;;;;;;;4.25;2.17;;;6.10;99.90;;;;;;5016420;28;20351;-77
2021/03/31 09:14:31;;;;;;;2.72;1.25;;;6.10;99.90;;;;;;5041157;28;20189;-78
2021/03/31 09:17:05;;;;;;;7.20;4.55;;;6.10;99.90;;;;;;5041328;28;20284;-77
2021/03/31 09:19:36;;;;;;;3.58;2.67;;;6.10;99.90;;;;;;5032764;28;20259;-77
2021/03/31 09:22:25;;;;;;;4.93;1.40;;;6.20;99.90;;;;;;5035241;28;20268;-78
2021/03/31 09:24:54;;;;;;;3.22;1.73;;;6.20;99.90;;;;;;5030998;28;20228;-78
2021/03/31 09:27:26;;;;;;;3.00;1.55;;;6.30;99.90;;;;;;5034159;28;20202;-78
2021/03/31 09:29:53;;;;;;;5.57;0.90;;;6.40;99.90;;;;;;5034858;28;20252;-76
2021/03/31 09:32:26;;;;;;;2.78;1.10;;;6.50;99.90;;;;;;5020895;28;20750;-76
2021/03/31 09:34:52;;;;;;;3.00;1.00;;;6.40;99.90;;;;;;5040493;28;20249;-77
2021/03/31 09:37:21;;;;;;;1.05;0.90;;;6.40;99.90;;;;;;5017981;28;20212;-76
2021/03/31 09:39:50;;;;;;;1.00;0.90;;;6.30;99.90;;;;;;5036145;28;20197;-76
2021/03/31 09:42:24;;;;;;;2.45;1.15;;;6.40;99.90;;;;;;5033933;28;20563;-77
2021/03/31 09:44:52;;;;;;;0.90;0.90;;;6.30;99.90;;;;;;5034646;28;20204;-76
2021/03/31 09:47:20;;;;;;;1.27;0.90;;;6.40;99.90;;;;;;5033484;28;20201;-76
2021/03/31 09:49:48;;;;;;;1.00;0.90;;;6.30;99.90;;;;;;5030436;28;20205;-76
2021/03/31 09:52:15;;;;;;;1.13;0.98;;;6.30;99.90;;;;;;5032626;28;20201;-77
2021/03/31 09:54:45;;;;;;;0.73;0.73;;;6.40;99.90;;;;;;5038293;28;20667;-77
2021/03/31 09:57:13;;;;;;;0.85;0.80;;;6.40;99.90;;;;;;5037153;28;20202;-76
2021/03/31 09:59:40;;;;;;;1.17;1.08;;;6.40;99.90;;;;;;5025652;28;20201;-76
2021/03/31 10:02:07;;;;;;;1.63;1.05;;;6.40;99.90;;;;;;5019945;28;20458;-76
2021/03/31 10:04:35;;;;;;;0.60;0.60;;;6.30;99.90;;;;;;5040940;28;20306;-76
2021/03/31 10:07:14;;;;;;;0.80;0.80;;;6.30;99.90;;;;;;5041726;28;20201;-76
2021/03/31 10:09:43;;;;;;;1.52;0.90;;;6.30;99.90;;;;;;5035064;28;20332;-76
2021/03/31 10:12:11;;;;;;;1.55;0.90;;;6.30;99.90;;;;;;5038589;28;20710;-74
2021/03/31 10:14:50;;;;;;;1.38;0.95;;;6.30;99.90;;;;;;5034917;28;20264;-76
2021/03/31 10:17:17;;;;;;;0.90;0.90;;;6.30;99.90;;;;;;5043063;28;22682;-76
2021/03/31 10:19:43;;;;;;;0.73;0.73;;;6.30;99.90;;;;;;5021438;28;20251;-76
2021/03/31 10:22:09;;;;;;;0.90;0.90;;;6.40;99.90;;;;;;5039847;28;20659;-75
2021/03/31 10:24:37;;;;;;;1.02;0.90;;;6.40;99.90;;;;;;5028736;28;20192;-76
2021/03/31 10:27:04;;;;;;;0.80;0.80;;;6.40;99.90;;;;;;5035699;28;20750;-76
2021/03/31 10:29:30;;;;;;;1.85;1.30;;;6.40;99.90;;;;;;5038323;28;20680;-76
2021/03/31 10:31:58;;;;;;;0.80;0.80;;;6.50;99.90;;;;;;5038760;28;20280;-76
2021/03/31 10:34:24;;;;;;;1.35;0.90;;;6.50;99.90;;;;;;5039336;28;20654;-76
2021/03/31 10:37:06;;;;;;;0.80;0.80;;;6.40;99.90;;;;;;5040293;28;20209;-76
2021/03/31 10:53:52;;;;;;;0.70;0.70;;;6.30;99.90;;;;;;5013986;28;20222;-77
2021/03/31 10:56:18;;;;;;;0.77;0.77;;;6.30;99.90;;;;;;5019851;28;20201;-78
2021/03/31 10:58:44;;;;;;;0.80;0.80;;;6.20;99.90;;;;;;5042708;28;20213;-78
2021/03/31 11:01:10;;;;;;;1.33;0.98;;;6.10;99.90;;;;;;5037036;28;20673;-77
2021/03/31 11:03:36;;;;;;;0.80;0.80;;;6.10;99.90;;;;;;5039631;28;20244;-77
2021/03/31 11:06:02;;;;;;;1.98;0.70;;;6.10;99.90;;;;;;5020654;28;20677;-78
2021/03/31 11:08:28;;;;;;;1.77;0.88;;;6.10;99.90;;;;;;5036988;28;20740;-77
2021/03/31 11:10:53;;;;;;;2.35;0.90;;;6.10;99.90;;;;;;5014914;28;20203;-77
2021/03/31 11:13:20;;;;;;;1.00;0.90;;;6.20;99.90;;;;;;5022420;28;20963;-75
2021/03/31 11:15:45;;;;;;;0.80;0.80;;;6.30;99.90;;;;;;5044605;28;20711;-77
2021/03/31 11:26:05;;;;;;;0.80;0.80;;;6.30;99.90;;;;;;5038365;28;20206;-77
2021/03/31 11:28:31;;;;;;;0.90;0.90;;;6.30;99.90;;;;;;5025803;28;20443;-78
2021/03/31 11:30:57;;;;;;;0.93;0.93;;;6.30;99.90;;;;;;5024906;28;20208;-78
2021/03/31 11:33:25;;;;;;;1.25;0.80;;;6.30;99.90;;;;;;5040813;28;20239;-77
2021/03/31 11:35:51;;;;;;;0.82;0.82;;;6.40;99.90;;;;;;5011014;28;20202;-77
2021/03/31 11:38:17;;;;;;;0.80;0.80;;;6.40;99.90;;;;;;5008087;28;20637;-78
2021/03/31 11:40:43;;;;;;;0.80;0.80;;;6.40;99.90;;;;;;5018090;28;20198;-76
2021/03/31 11:43:11;;;;;;;2.35;0.73;;;6.40;99.90;;;;;;5032669;28;20244;-77
2021/03/31 11:45:37;;;;;;;4.43;0.70;;;6.30;99.90;;;;;;5037779;28;20203;-78
2021/03/31 11:48:03;;;;;;;0.82;0.82;;;6.20;99.90;;;;;;5025342;28;20197;-77
2021/03/31 11:50:29;;;;;;;0.82;0.82;;;6.10;99.90;;;;;;5032484;28;20747;-77
2021/03/31 11:52:54;;;;;;;0.93;0.80;;;6.20;99.90;;;;;;5042461;28;20204;-77
2021/03/31 11:55:21;;;;;;;0.80;0.80;;;6.30;99.90;;;;;;5035465;28;20747;-78
2021/03/31 11:57:47;;;;;;;2.05;0.80;;;6.30;99.90;;;;;;5041369;28;20767;-78
2021/03/31 12:00:14;;;;;;;0.80;0.80;;;6.20;99.90;;;;;;5022270;28;20205;-77
2021/03/31 12:02:40;;;;;;;0.82;0.80;;;6.20;99.90;;;;;;5012782;28;20326;-78
2021/03/31 12:05:06;;;;;;;0.95;0.90;;;6.30;99.90;;;;;;5035966;28;20206;-78
2021/03/31 12:07:32;;;;;;;0.70;0.70;;;6.50;99.90;;;;;;5034585;28;20205;-78
2021/03/31 12:09:58;;;;;;;1.27;0.82;;;6.50;99.90;;;;;;5019022;28;20217;-78
2021/03/31 12:12:24;;;;;;;2.80;1.10;;;6.60;99.90;;;;;;5037667;28;20238;-78
2021/03/31 12:14:49;;;;;;;0.90;0.90;;;6.50;99.90;;;;;;5017026;28;20201;-78
2021/03/31 12:17:17;;;;;;;0.93;0.90;;;6.60;99.90;;;;;;5009871;28;20279;-76
2021/03/31 12:19:42;;;;;;;0.70;0.70;;;6.60;99.90;;;;;;5035938;28;20781;-78
2021/03/31 12:22:08;;;;;;;0.80;0.80;;;6.60;99.90;;;;;;5041967;28;20213;-78
2021/03/31 12:24:33;;;;;;;1.48;0.80;;;6.50;99.90;;;;;;5040174;28;20663;-78
2021/03/31 12:27:04;;;;;;;0.70;0.70;;;6.60;99.90;;;;;;5038168;28;20245;-79
2021/03/31 12:29:30;;;;;;;1.15;0.80;;;6.50;99.90;;;;;;5035875;28;20771;-76
2021/03/31 12:31:57;;;;;;;0.70;0.70;;;6.60;99.90;;;;;;5034417;28;20621;-75
2021/03/31 12:34:26;;;;;;;1.13;0.90;;;6.50;99.90;;;;;;5018501;28;20193;-75
2021/03/31 12:36:52;;;;;;;2.10;1.00;;;6.50;99.90;;;;;;5020038;28;20236;-75
2021/03/31 12:39:18;;;;;;;0.77;0.77;;;6.50;99.90;;;;;;5033521;28;20593;-77
2021/03/31 12:41:44;;;;;;;0.70;0.70;;;6.60;99.90;;;;;;5037067;28;20217;-76
2021/03/31 12:44:09;;;;;;;2.58;0.95;;;6.70;99.90;;;;;;5043235;28;20193;-77
2021/03/31 12:46:35;;;;;;;1.77;0.80;;;6.70;99.90;;;;;;5044787;28;20201;-78
2021/03/31 12:49:01;;;;;;;2.33;0.95;;;6.60;99.90;;;;;;5032625;28;20209;-77
2021/03/31 12:51:34;;;;;;;1.50;1.10;;;6.60;99.90;;;;;;5034954;28;20214;-73
2021/03/31 12:56:49;;;;;;;1.30;0.80;;;6.80;99.90;;;;;;5004288;28;20477;-73
2021/03/31 12:59:15;;;;;;;0.90;0.80;;;6.70;99.90;;;;;;5034760;28;20663;-73
2021/03/31 13:01:40;;;;;;;0.80;0.80;;;6.70;99.90;;;;;;5030524;28;20197;-73
2021/03/31 13:04:06;;;;;;;0.70;0.65;;;6.70;99.90;;;;;;5033449;28;20716;-73
2021/03/31 13:06:33;;;;;;;0.73;0.73;;;6.70;99.90;;;;;;5015748;28;20201;-76
2021/03/31 13:09:00;;;;;;;0.70;0.70;;;6.60;99.90;;;;;;5040253;28;20205;-73
2021/03/31 13:11:26;;;;;;;2.00;0.98;;;6.60;99.90;;;;;;5019134;28;20197;-73
2021/03/31 13:24:28;;;;;;;1.33;1.00;;;6.80;99.90;;;;;;5033860;28;21204;-74
2021/03/31 13:32:20;;;;;;;1.05;0.90;;;7.00;99.90;;;;;;5035860;28;20225;-72
2021/03/31 13:34:51;;;;;;;1.35;1.10;;;7.00;99.90;;;;;;5019626;28;20225;-73
2021/03/31 13:37:24;;;;;;;0.80;0.80;;;7.10;99.90;;;;;;5040591;28;20189;-73
2021/03/31 13:39:54;;;;;;;0.93;0.90;;;7.20;99.90;;;;;;5039559;28;20185;-73
2021/03/31 13:42:21;;;;;;;0.82;0.82;;;7.20;99.90;;;;;;5018798;28;20713;-74
2021/03/31 13:44:48;;;;;;;1.45;1.15;;;7.20;99.90;;;;;;5020142;28;20190;-72
2021/03/31 13:47:25;;;;;;;0.95;0.93;;;7.20;99.90;;;;;;5015765;28;20202;-72
2021/03/31 13:52:27;;;;;;;0.80;0.80;;;7.10;99.90;;;;;;5038304;28;20193;-73